sensor_id;sensor_type;location;lat;lon;timestamp;temperature;humidity
38237;DHT22;50101;49.438;11.098;2024-02-21T00:00:09;19.10;55.00
38237;DHT22;50101;49.438;11.098;2024-02-21T00:02:37;19.10;55.00
38237;DHT22;50101;49.438;11.098;2024-02-21T00:05:05;19.10;55.00
38237;DHT22;50101;49.438;11.098;2024-02-21T00:07:33;19.10;55.00
38237;DHT22;50101;49.438;11.098;2024-02-21T00:10:00;19.10;55.00
38237;DHT22;50101;49.438;11.098;2024-02-21T00:12:27;19.10;55.00
38237;DHT22;50101;49.438;11.098;2024-02-21T00:14:53;19.10;55.00
38237;DHT22;50101;49.438;11.098;2024-02-21T00:17:20;19.10;55.00
38237;DHT22;50101;49.438;11.098;2024-02-21T00:19:47;19.10;55.00
38237;DHT22;50101;49.438;11.098;2024-02-21T00:22:13;19.10;55.00
38237;DHT22;50101;49.438;11.098;2024-02-21T00:24:40;19.10;55.50
38237;DHT22;50101;49.438;11.098;2024-02-21T00:27:07;19.00;54.90
38237;DHT22;50101;49.438;11.098;2024-02-21T00:29:33;19.00;55.00
38237;DHT22;50101;49.438;11.098;2024-02-21T00:32:01;19.00;55.10
38237;DHT22;50101;49.438;11.098;2024-02-21T00:34:28;19.00;54.90
38237;DHT22;50101;49.438;11.098;2024-02-21T00:36:55;19.00;55.00
38237;DHT22;50101;49.438;11.098;2024-02-21T00:39:21;19.00;55.40
38237;DHT22;50101;49.438;11.098;2024-02-21T00:41:48;19.00;55.00
38237;DHT22;50101;49.438;11.098;2024-02-21T00:44:15;19.00;55.00
38237;DHT22;50101;49.438;11.098;2024-02-21T00:46:42;19.00;55.00
38237;DHT22;50101;49.438;11.098;2024-02-21T00:49:09;19.00;55.00
38237;DHT22;50101;49.438;11.098;2024-02-21T00:51:35;19.00;55.40
38237;DHT22;50101;49.438;11.098;2024-02-21T00:54:02;19.00;55.00
38237;DHT22;50101;49.438;11.098;2024-02-21T00:56:29;19.00;55.00
38237;DHT22;50101;49.438;11.098;2024-02-21T00:58:57;19.00;55.00
38237;DHT22;50101;49.438;11.098;2024-02-21T01:01:27;19.00;55.10
38237;DHT22;50101;49.438;11.098;2024-02-21T01:03:53;19.00;55.40
38237;DHT22;50101;49.438;11.098;2024-02-21T01:06:20;19.00;55.10
38237;DHT22;50101;49.438;11.098;2024-02-21T01:08:48;19.00;54.90
38237;DHT22;50101;49.438;11.098;2024-02-21T01:11:15;19.00;55.00
38237;DHT22;50101;49.438;11.098;2024-02-21T01:13:43;19.00;55.00
38237;DHT22;50101;49.438;11.098;2024-02-21T01:16:10;19.00;55.00
38237;DHT22;50101;49.438;11.098;2024-02-21T01:18:37;19.00;55.00
38237;DHT22;50101;49.438;11.098;2024-02-21T01:21:06;18.90;54.90
38237;DHT22;50101;49.438;11.098;2024-02-21T01:23:37;19.00;55.00
38237;DHT22;50101;49.438;11.098;2024-02-21T01:26:04;18.90;54.90
38237;DHT22;50101;49.438;11.098;2024-02-21T01:28:31;19.00;55.00
38237;DHT22;50101;49.438;11.098;2024-02-21T01:30:58;19.00;55.00
38237;DHT22;50101;49.438;11.098;2024-02-21T01:33:24;18.90;54.90
38237;DHT22;50101;49.438;11.098;2024-02-21T01:35:51;19.00;55.00
38237;DHT22;50101;49.438;11.098;2024-02-21T01:38:18;18.90;54.90
38237;DHT22;50101;49.438;11.098;2024-02-21T01:40:45;19.00;55.00
38237;DHT22;50101;49.438;11.098;2024-02-21T01:43:16;19.00;55.00
38237;DHT22;50101;49.438;11.098;2024-02-21T01:45:49;18.90;54.90
38237;DHT22;50101;49.438;11.098;2024-02-21T01:48:17;18.90;54.90
38237;DHT22;50101;49.438;11.098;2024-02-21T01:50:46;18.90;54.90
38237;DHT22;50101;49.438;11.098;2024-02-21T01:53:16;18.90;54.90
38237;DHT22;50101;49.438;11.098;2024-02-21T01:55:48;19.00;55.00
38237;DHT22;50101;49.438;11.098;2024-02-21T01:58:16;19.00;55.00
38237;DHT22;50101;49.438;11.098;2024-02-21T02:00:43;18.90;54.90
38237;DHT22;50101;49.438;11.098;2024-02-21T02:03:12;18.90;54.90
38237;DHT22;50101;49.438;11.098;2024-02-21T02:05:46;18.90;54.90
38237;DHT22;50101;49.438;11.098;2024-02-21T02:08:17;18.90;54.90
38237;DHT22;50101;49.438;11.098;2024-02-21T02:10:44;18.90;54.90
38237;DHT22;50101;49.438;11.098;2024-02-21T02:13:11;18.90;54.90
38237;DHT22;50101;49.438;11.098;2024-02-21T02:15:46;18.90;54.90
38237;DHT22;50101;49.438;11.098;2024-02-21T02:18:13;18.90;54.90
38237;DHT22;50101;49.438;11.098;2024-02-21T02:20:41;18.90;54.90
38237;DHT22;50101;49.438;11.098;2024-02-21T02:23:24;18.80;54.90
38237;DHT22;50101;49.438;11.098;2024-02-21T02:25:51;18.80;54.90
38237;DHT22;50101;49.438;11.098;2024-02-21T02:28:19;18.90;55.40
38237;DHT22;50101;49.438;11.098;2024-02-21T02:30:46;18.90;54.90
38237;DHT22;50101;49.438;11.098;2024-02-21T02:33:13;18.90;54.90
38237;DHT22;50101;49.438;11.098;2024-02-21T02:35:40;18.80;54.90
38237;DHT22;50101;49.438;11.098;2024-02-21T02:38:07;18.90;54.90
38237;DHT22;50101;49.438;11.098;2024-02-21T02:40:34;18.90;54.90
38237;DHT22;50101;49.438;11.098;2024-02-21T02:43:01;18.80;54.90
38237;DHT22;50101;49.438;11.098;2024-02-21T02:45:28;18.80;54.90
38237;DHT22;50101;49.438;11.098;2024-02-21T02:47:56;18.90;54.90
38237;DHT22;50101;49.438;11.098;2024-02-21T02:50:24;18.80;54.90
38237;DHT22;50101;49.438;11.098;2024-02-21T02:55:19;18.90;54.90
38237;DHT22;50101;49.438;11.098;2024-02-21T02:57:46;18.80;55.30
38237;DHT22;50101;49.438;11.098;2024-02-21T03:00:14;18.80;54.90
38237;DHT22;50101;49.438;11.098;2024-02-21T03:02:42;18.80;54.90
38237;DHT22;50101;49.438;11.098;2024-02-21T03:05:15;18.80;54.90
38237;DHT22;50101;49.438;11.098;2024-02-21T03:07:43;18.90;55.00
38237;DHT22;50101;49.438;11.098;2024-02-21T03:10:11;18.90;54.90
38237;DHT22;50101;49.438;11.098;2024-02-21T03:12:38;18.80;54.90
38237;DHT22;50101;49.438;11.098;2024-02-21T03:15:05;18.70;54.80
38237;DHT22;50101;49.438;11.098;2024-02-21T03:17:33;18.80;55.30
38237;DHT22;50101;49.438;11.098;2024-02-21T03:20:03;18.80;54.90
38237;DHT22;50101;49.438;11.098;2024-02-21T03:22:39;18.80;55.00
38237;DHT22;50101;49.438;11.098;2024-02-21T03:25:07;18.80;54.90
38237;DHT22;50101;49.438;11.098;2024-02-21T03:27:34;18.90;55.00
38237;DHT22;50101;49.438;11.098;2024-02-21T03:30:01;18.80;55.30
38237;DHT22;50101;49.438;11.098;2024-02-21T03:32:28;18.90;55.00
38237;DHT22;50101;49.438;11.098;2024-02-21T03:34:56;18.70;54.80
38237;DHT22;50101;49.438;11.098;2024-02-21T03:37:23;18.80;55.30
38237;DHT22;50101;49.438;11.098;2024-02-21T03:39:49;18.80;54.90
38237;DHT22;50101;49.438;11.098;2024-02-21T03:42:16;18.80;54.90
38237;DHT22;50101;49.438;11.098;2024-02-21T03:44:43;18.80;55.30
38237;DHT22;50101;49.438;11.098;2024-02-21T03:47:09;18.70;54.80
38237;DHT22;50101;49.438;11.098;2024-02-21T03:49:38;18.80;55.30
38237;DHT22;50101;49.438;11.098;2024-02-21T03:52:05;18.80;54.90
38237;DHT22;50101;49.438;11.098;2024-02-21T03:54:32;18.80;54.90
38237;DHT22;50101;49.438;11.098;2024-02-21T03:59:25;18.70;54.80
38237;DHT22;50101;49.438;11.098;2024-02-21T04:01:53;18.80;54.90
38237;DHT22;50101;49.438;11.098;2024-02-21T04:04:20;18.70;54.80
38237;DHT22;50101;49.438;11.098;2024-02-21T04:06:50;18.80;54.90
38237;DHT22;50101;49.438;11.098;2024-02-21T04:09:18;18.80;54.90
38237;DHT22;50101;49.438;11.098;2024-02-21T04:11:44;18.70;54.80
38237;DHT22;50101;49.438;11.098;2024-02-21T04:14:11;18.70;54.80
38237;DHT22;50101;49.438;11.098;2024-02-21T04:16:38;18.80;54.90
38237;DHT22;50101;49.438;11.098;2024-02-21T04:19:06;18.80;54.90
38237;DHT22;50101;49.438;11.098;2024-02-21T04:21:35;18.70;54.70
38237;DHT22;50101;49.438;11.098;2024-02-21T04:24:02;18.70;54.80
38237;DHT22;50101;49.438;11.098;2024-02-21T04:26:31;18.70;54.80
38237;DHT22;50101;49.438;11.098;2024-02-21T04:33:53;18.70;54.80
38237;DHT22;50101;49.438;11.098;2024-02-21T04:36:20;18.80;54.90
38237;DHT22;50101;49.438;11.098;2024-02-21T04:38:47;18.80;54.90
38237;DHT22;50101;49.438;11.098;2024-02-21T04:41:13;18.70;54.80
38237;DHT22;50101;49.438;11.098;2024-02-21T04:43:40;18.70;54.80
38237;DHT22;50101;49.438;11.098;2024-02-21T04:46:07;18.70;54.80
38237;DHT22;50101;49.438;11.098;2024-02-21T04:48:34;18.70;54.90
38237;DHT22;50101;49.438;11.098;2024-02-21T04:51:00;18.60;54.80
38237;DHT22;50101;49.438;11.098;2024-02-21T04:53:27;18.60;54.80
38237;DHT22;50101;49.438;11.098;2024-02-21T04:58:21;18.70;54.90
38237;DHT22;50101;49.438;11.098;2024-02-21T05:00:48;18.60;54.80
38237;DHT22;50101;49.438;11.098;2024-02-21T05:03:15;18.70;54.80
38237;DHT22;50101;49.438;11.098;2024-02-21T05:05:42;18.70;54.90
38237;DHT22;50101;49.438;11.098;2024-02-21T05:08:09;18.70;54.80
38237;DHT22;50101;49.438;11.098;2024-02-21T05:10:37;18.70;54.80
38237;DHT22;50101;49.438;11.098;2024-02-21T05:13:03;18.80;54.80
38237;DHT22;50101;49.438;11.098;2024-02-21T05:15:31;18.80;54.90
38237;DHT22;50101;49.438;11.098;2024-02-21T05:17:58;18.80;54.90
38237;DHT22;50101;49.438;11.098;2024-02-21T05:20:24;18.80;54.90
38237;DHT22;50101;49.438;11.098;2024-02-21T05:22:51;18.70;54.90
38237;DHT22;50101;49.438;11.098;2024-02-21T05:25:18;18.70;54.90
38237;DHT22;50101;49.438;11.098;2024-02-21T05:27:45;18.80;55.00
38237;DHT22;50101;49.438;11.098;2024-02-21T05:30:12;18.80;54.90
38237;DHT22;50101;49.438;11.098;2024-02-21T05:32:39;18.60;54.90
38237;DHT22;50101;49.438;11.098;2024-02-21T05:35:08;18.80;55.00
38237;DHT22;50101;49.438;11.098;2024-02-21T05:37:35;18.80;55.00
38237;DHT22;50101;49.438;11.098;2024-02-21T05:40:03;18.70;54.90
38237;DHT22;50101;49.438;11.098;2024-02-21T05:42:29;18.80;54.90
38237;DHT22;50101;49.438;11.098;2024-02-21T05:44:56;18.80;54.90
38237;DHT22;50101;49.438;11.098;2024-02-21T05:47:23;18.80;54.90
38237;DHT22;50101;49.438;11.098;2024-02-21T05:49:49;18.80;54.90
38237;DHT22;50101;49.438;11.098;2024-02-21T05:52:20;18.80;54.90
38237;DHT22;50101;49.438;11.098;2024-02-21T05:54:46;18.50;54.60
38237;DHT22;50101;49.438;11.098;2024-02-21T05:57:17;18.80;54.80
38237;DHT22;50101;49.438;11.098;2024-02-21T05:59:45;18.80;54.90
38237;DHT22;50101;49.438;11.098;2024-02-21T06:02:12;18.70;54.70
38237;DHT22;50101;49.438;11.098;2024-02-21T06:04:39;18.80;54.80
38237;DHT22;50101;49.438;11.098;2024-02-21T06:07:06;18.80;54.80
38237;DHT22;50101;49.438;11.098;2024-02-21T06:09:33;18.80;54.80
38237;DHT22;50101;49.438;11.098;2024-02-21T06:12:00;18.80;54.80
38237;DHT22;50101;49.438;11.098;2024-02-21T06:14:26;18.80;54.80
38237;DHT22;50101;49.438;11.098;2024-02-21T06:16:53;18.80;54.90
38237;DHT22;50101;49.438;11.098;2024-02-21T06:19:20;18.90;54.80
38237;DHT22;50101;49.438;11.098;2024-02-21T06:21:47;18.80;54.70
38237;DHT22;50101;49.438;11.098;2024-02-21T06:24:13;18.90;54.80
38237;DHT22;50101;49.438;11.098;2024-02-21T06:26:40;18.80;54.60
38237;DHT22;50101;49.438;11.098;2024-02-21T06:29:07;18.90;54.70
38237;DHT22;50101;49.438;11.098;2024-02-21T06:31:35;18.90;54.70
38237;DHT22;50101;49.438;11.098;2024-02-21T06:34:02;18.90;54.70
38237;DHT22;50101;49.438;11.098;2024-02-21T06:36:29;18.90;54.90
38237;DHT22;50101;49.438;11.098;2024-02-21T06:38:56;18.90;55.40
38237;DHT22;50101;49.438;11.098;2024-02-21T06:41:23;19.00;55.00
38237;DHT22;50101;49.438;11.098;2024-02-21T06:43:50;19.00;55.00
38237;DHT22;50101;49.438;11.098;2024-02-21T06:46:27;18.90;54.90
38237;DHT22;50101;49.438;11.098;2024-02-21T06:48:57;19.00;55.00
38237;DHT22;50101;49.438;11.098;2024-02-21T06:51:24;19.00;55.00
38237;DHT22;50101;49.438;11.098;2024-02-21T06:53:52;19.00;55.00
38237;DHT22;50101;49.438;11.098;2024-02-21T06:56:19;18.90;54.90
38237;DHT22;50101;49.438;11.098;2024-02-21T06:58:46;19.10;55.00
38237;DHT22;50101;49.438;11.098;2024-02-21T07:01:12;19.00;54.90
38237;DHT22;50101;49.438;11.098;2024-02-21T07:03:39;19.10;54.90
38237;DHT22;50101;49.438;11.098;2024-02-21T07:08:33;19.10;54.90
38237;DHT22;50101;49.438;11.098;2024-02-21T07:11:00;19.10;54.90
38237;DHT22;50101;49.438;11.098;2024-02-21T07:13:27;19.20;54.80
38237;DHT22;50101;49.438;11.098;2024-02-21T07:15:54;19.20;54.70
38237;DHT22;50101;49.438;11.098;2024-02-21T07:18:20;19.30;54.80
38237;DHT22;50101;49.438;11.098;2024-02-21T07:20:47;19.30;54.80
38237;DHT22;50101;49.438;11.098;2024-02-21T07:23:14;19.40;54.80
38237;DHT22;50101;49.438;11.098;2024-02-21T07:25:41;19.30;54.70
38237;DHT22;50101;49.438;11.098;2024-02-21T07:28:07;19.30;54.90
38237;DHT22;50101;49.438;11.098;2024-02-21T07:30:34;19.40;54.90
38237;DHT22;50101;49.438;11.098;2024-02-21T07:33:02;19.40;55.00
38237;DHT22;50101;49.438;11.098;2024-02-21T07:35:28;19.40;55.10
38237;DHT22;50101;49.438;11.098;2024-02-21T07:37:55;19.40;55.10
38237;DHT22;50101;49.438;11.098;2024-02-21T07:40:22;19.50;55.10
38237;DHT22;50101;49.438;11.098;2024-02-21T07:42:49;19.40;55.00
38237;DHT22;50101;49.438;11.098;2024-02-21T07:45:17;19.50;55.10
38237;DHT22;50101;49.438;11.098;2024-02-21T07:47:50;19.50;54.90
38237;DHT22;50101;49.438;11.098;2024-02-21T07:50:17;19.60;55.00
38237;DHT22;50101;49.438;11.098;2024-02-21T07:52:44;19.50;55.10
38237;DHT22;50101;49.438;11.098;2024-02-21T07:55:11;19.60;55.10
38237;DHT22;50101;49.438;11.098;2024-02-21T07:57:38;19.60;55.00
38237;DHT22;50101;49.438;11.098;2024-02-21T08:00:05;19.60;54.90
38237;DHT22;50101;49.438;11.098;2024-02-21T08:02:32;19.60;55.00
38237;DHT22;50101;49.438;11.098;2024-02-21T08:07:26;19.60;55.00
38237;DHT22;50101;49.438;11.098;2024-02-21T08:09:55;19.70;55.10
38237;DHT22;50101;49.438;11.098;2024-02-21T08:12:22;19.70;55.00
38237;DHT22;50101;49.438;11.098;2024-02-21T08:14:49;19.70;55.00
38237;DHT22;50101;49.438;11.098;2024-02-21T08:17:15;19.70;54.90
38237;DHT22;50101;49.438;11.098;2024-02-21T08:19:42;19.80;55.10
38237;DHT22;50101;49.438;11.098;2024-02-21T08:22:09;19.60;55.00
38237;DHT22;50101;49.438;11.098;2024-02-21T08:24:35;19.80;55.00
38237;DHT22;50101;49.438;11.098;2024-02-21T08:27:02;19.70;54.80
38237;DHT22;50101;49.438;11.098;2024-02-21T08:29:29;19.90;54.90
38237;DHT22;50101;49.438;11.098;2024-02-21T08:31:56;19.70;54.60
38237;DHT22;50101;49.438;11.098;2024-02-21T08:34:22;19.80;54.70
38237;DHT22;50101;49.438;11.098;2024-02-21T08:36:49;19.80;54.70
38237;DHT22;50101;49.438;11.098;2024-02-21T08:39:16;19.80;54.70
38237;DHT22;50101;49.438;11.098;2024-02-21T08:41:43;19.80;54.70
38237;DHT22;50101;49.438;11.098;2024-02-21T08:44:23;19.80;54.70
38237;DHT22;50101;49.438;11.098;2024-02-21T08:46:54;19.90;54.80
38237;DHT22;50101;49.438;11.098;2024-02-21T08:49:21;19.90;54.80
38237;DHT22;50101;49.438;11.098;2024-02-21T08:51:48;19.80;55.20
38237;DHT22;50101;49.438;11.098;2024-02-21T08:54:15;19.90;54.80
38237;DHT22;50101;49.438;11.098;2024-02-21T08:56:42;19.90;54.90
38237;DHT22;50101;49.438;11.098;2024-02-21T08:59:08;19.90;54.90
38237;DHT22;50101;49.438;11.098;2024-02-21T09:01:35;19.90;55.40
38237;DHT22;50101;49.438;11.098;2024-02-21T09:04:03;19.90;55.00
38237;DHT22;50101;49.438;11.098;2024-02-21T09:06:30;20.00;55.10
38237;DHT22;50101;49.438;11.098;2024-02-21T09:08:57;20.00;55.10
38237;DHT22;50101;49.438;11.098;2024-02-21T09:11:24;20.00;55.10
38237;DHT22;50101;49.438;11.098;2024-02-21T09:13:51;20.00;55.20
38237;DHT22;50101;49.438;11.098;2024-02-21T09:16:18;20.00;55.10
38237;DHT22;50101;49.438;11.098;2024-02-21T09:18:45;20.00;55.10
38237;DHT22;50101;49.438;11.098;2024-02-21T09:23:40;20.10;54.90
38237;DHT22;50101;49.438;11.098;2024-02-21T09:26:06;20.00;55.40
38237;DHT22;50101;49.438;11.098;2024-02-21T09:28:34;20.10;55.00
38237;DHT22;50101;49.438;11.098;2024-02-21T09:31:01;20.10;55.00
38237;DHT22;50101;49.438;11.098;2024-02-21T09:33:28;20.10;55.00
38237;DHT22;50101;49.438;11.098;2024-02-21T09:35:58;20.10;55.00
38237;DHT22;50101;49.438;11.098;2024-02-21T09:38:25;20.10;55.00
38237;DHT22;50101;49.438;11.098;2024-02-21T09:41:15;20.10;55.10
38237;DHT22;50101;49.438;11.098;2024-02-21T09:43:51;20.10;55.20
38237;DHT22;50101;49.438;11.098;2024-02-21T09:51:36;20.10;55.10
38237;DHT22;50101;49.438;11.098;2024-02-21T09:54:05;20.10;55.00
38237;DHT22;50101;49.438;11.098;2024-02-21T09:56:45;20.00;55.00
38237;DHT22;50101;49.438;11.098;2024-02-21T10:01:39;20.00;55.00
38237;DHT22;50101;49.438;11.098;2024-02-21T10:04:06;20.00;55.50
38237;DHT22;50101;49.438;11.098;2024-02-21T10:09:00;20.00;55.30
38237;DHT22;50101;49.438;11.098;2024-02-21T10:11:27;20.00;55.30
38237;DHT22;50101;49.438;11.098;2024-02-21T10:14:07;20.00;55.80
38237;DHT22;50101;49.438;11.098;2024-02-21T10:16:34;20.10;55.30
38237;DHT22;50101;49.438;11.098;2024-02-21T10:19:01;20.10;55.80
38237;DHT22;50101;49.438;11.098;2024-02-21T10:21:28;20.20;55.30
38237;DHT22;50101;49.438;11.098;2024-02-21T10:23:56;20.20;55.20
38237;DHT22;50101;49.438;11.098;2024-02-21T10:26:22;20.20;55.20
38237;DHT22;50101;49.438;11.098;2024-02-21T10:28:49;20.20;55.20
38237;DHT22;50101;49.438;11.098;2024-02-21T10:31:23;20.20;55.10
38237;DHT22;50101;49.438;11.098;2024-02-21T10:33:58;20.30;55.10
38237;DHT22;50101;49.438;11.098;2024-02-21T10:36:25;20.20;55.10
38237;DHT22;50101;49.438;11.098;2024-02-21T10:38:53;20.20;55.10
38237;DHT22;50101;49.438;11.098;2024-02-21T10:41:22;20.20;55.60
38237;DHT22;50101;49.438;11.098;2024-02-21T10:43:54;20.30;55.10
38237;DHT22;50101;49.438;11.098;2024-02-21T10:46:23;20.30;55.10
38237;DHT22;50101;49.438;11.098;2024-02-21T10:49:07;20.20;55.00
38237;DHT22;50101;49.438;11.098;2024-02-21T10:51:40;20.20;55.10
38237;DHT22;50101;49.438;11.098;2024-02-21T10:54:23;20.20;55.00
38237;DHT22;50101;49.438;11.098;2024-02-21T10:56:57;20.20;55.40
38237;DHT22;50101;49.438;11.098;2024-02-21T10:59:25;20.30;55.10
38237;DHT22;50101;49.438;11.098;2024-02-21T11:01:53;20.20;55.20
38237;DHT22;50101;49.438;11.098;2024-02-21T11:04:26;20.20;55.10
38237;DHT22;50101;49.438;11.098;2024-02-21T11:06:53;20.20;55.10
38237;DHT22;50101;49.438;11.098;2024-02-21T11:09:29;20.30;55.10
38237;DHT22;50101;49.438;11.098;2024-02-21T11:11:57;20.20;55.20
38237;DHT22;50101;49.438;11.098;2024-02-21T11:14:27;20.20;55.10
38237;DHT22;50101;49.438;11.098;2024-02-21T11:19:26;20.30;55.20
38237;DHT22;50101;49.438;11.098;2024-02-21T11:21:54;20.30;55.20
38237;DHT22;50101;49.438;11.098;2024-02-21T11:24:29;20.30;55.20
38237;DHT22;50101;49.438;11.098;2024-02-21T11:27:19;20.30;55.20
38237;DHT22;50101;49.438;11.098;2024-02-21T11:29:48;20.30;55.10
38237;DHT22;50101;49.438;11.098;2024-02-21T11:32:20;20.30;55.10
38237;DHT22;50101;49.438;11.098;2024-02-21T11:35:00;20.30;55.10
38237;DHT22;50101;49.438;11.098;2024-02-21T11:37:35;20.20;55.10
38237;DHT22;50101;49.438;11.098;2024-02-21T11:40:04;20.30;55.20
38237;DHT22;50101;49.438;11.098;2024-02-21T11:42:33;20.30;55.30
38237;DHT22;50101;49.438;11.098;2024-02-21T11:45:00;20.30;55.20
38237;DHT22;50101;49.438;11.098;2024-02-21T11:47:31;20.20;55.10
38237;DHT22;50101;49.438;11.098;2024-02-21T11:49:57;20.20;55.00
38237;DHT22;50101;49.438;11.098;2024-02-21T11:52:25;20.20;55.00
38237;DHT22;50101;49.438;11.098;2024-02-21T11:54:53;20.40;55.10
38237;DHT22;50101;49.438;11.098;2024-02-21T11:57:22;20.30;55.10
38237;DHT22;50101;49.438;11.098;2024-02-21T11:59:49;20.30;55.10
38237;DHT22;50101;49.438;11.098;2024-02-21T12:02:23;20.30;55.00
38237;DHT22;50101;49.438;11.098;2024-02-21T12:04:50;20.30;55.00
38237;DHT22;50101;49.438;11.098;2024-02-21T12:07:18;20.30;55.40
38237;DHT22;50101;49.438;11.098;2024-02-21T12:09:45;20.30;54.90
38237;DHT22;50101;49.438;11.098;2024-02-21T12:12:12;20.30;55.00
38237;DHT22;50101;49.438;11.098;2024-02-21T12:14:39;20.30;55.10
38237;DHT22;50101;49.438;11.098;2024-02-21T12:17:06;20.30;55.10
38237;DHT22;50101;49.438;11.098;2024-02-21T12:19:33;20.30;55.10
38237;DHT22;50101;49.438;11.098;2024-02-21T12:22:01;20.50;55.30
38237;DHT22;50101;49.438;11.098;2024-02-21T12:24:32;20.30;55.10
38237;DHT22;50101;49.438;11.098;2024-02-21T12:26:59;20.40;55.20
38237;DHT22;50101;49.438;11.098;2024-02-21T12:29:26;20.40;55.20
38237;DHT22;50101;49.438;11.098;2024-02-21T12:34:23;20.30;55.10
38237;DHT22;50101;49.438;11.098;2024-02-21T12:41:59;20.40;55.30
38237;DHT22;50101;49.438;11.098;2024-02-21T12:44:26;20.40;55.30
38237;DHT22;50101;49.438;11.098;2024-02-21T12:46:53;20.40;55.30
38237;DHT22;50101;49.438;11.098;2024-02-21T12:49:22;20.40;55.20
38237;DHT22;50101;49.438;11.098;2024-02-21T12:51:49;20.30;55.10
38237;DHT22;50101;49.438;11.098;2024-02-21T12:54:16;20.30;55.30
38237;DHT22;50101;49.438;11.098;2024-02-21T12:56:42;20.40;55.50
38237;DHT22;50101;49.438;11.098;2024-02-21T12:59:09;20.40;55.60
38237;DHT22;50101;49.438;11.098;2024-02-21T13:01:37;20.50;55.70
38237;DHT22;50101;49.438;11.098;2024-02-21T13:04:05;20.40;55.60
38237;DHT22;50101;49.438;11.098;2024-02-21T13:06:32;20.40;55.70
38237;DHT22;50101;49.438;11.098;2024-02-21T13:08:59;20.40;55.80
38237;DHT22;50101;49.438;11.098;2024-02-21T13:11:30;20.40;55.80
38237;DHT22;50101;49.438;11.098;2024-02-21T13:13:58;20.40;55.80
38237;DHT22;50101;49.438;11.098;2024-02-21T13:16:25;20.50;55.90
38237;DHT22;50101;49.438;11.098;2024-02-21T13:18:55;20.40;56.10
38237;DHT22;50101;49.438;11.098;2024-02-21T13:21:22;20.40;56.10
38237;DHT22;50101;49.438;11.098;2024-02-21T13:23:49;20.50;56.20
38237;DHT22;50101;49.438;11.098;2024-02-21T13:26:16;20.50;56.20
38237;DHT22;50101;49.438;11.098;2024-02-21T13:28:43;20.50;56.20
38237;DHT22;50101;49.438;11.098;2024-02-21T13:31:12;20.50;56.30
38237;DHT22;50101;49.438;11.098;2024-02-21T13:33:38;20.60;56.40
38237;DHT22;50101;49.438;11.098;2024-02-21T13:36:05;20.60;56.50
38237;DHT22;50101;49.438;11.098;2024-02-21T13:38:32;20.60;56.50
38237;DHT22;50101;49.438;11.098;2024-02-21T13:40:59;20.50;56.90
38237;DHT22;50101;49.438;11.098;2024-02-21T13:43:27;20.60;56.50
38237;DHT22;50101;49.438;11.098;2024-02-21T13:45:59;20.50;56.70
38237;DHT22;50101;49.438;11.098;2024-02-21T13:48:26;20.70;56.90
38237;DHT22;50101;49.438;11.098;2024-02-21T13:50:54;20.60;56.80
38237;DHT22;50101;49.438;11.098;2024-02-21T13:53:20;20.50;56.80
38237;DHT22;50101;49.438;11.098;2024-02-21T13:55:49;20.60;56.90
38237;DHT22;50101;49.438;11.098;2024-02-21T13:58:16;20.60;57.40
38237;DHT22;50101;49.438;11.098;2024-02-21T14:00:44;20.60;57.40
38237;DHT22;50101;49.438;11.098;2024-02-21T14:03:10;20.60;57.10
38237;DHT22;50101;49.438;11.098;2024-02-21T14:05:37;20.60;57.20
38237;DHT22;50101;49.438;11.098;2024-02-21T14:08:08;20.70;57.20
38237;DHT22;50101;49.438;11.098;2024-02-21T14:10:35;20.70;57.10
38237;DHT22;50101;49.438;11.098;2024-02-21T14:13:04;20.70;57.20
38237;DHT22;50101;49.438;11.098;2024-02-21T14:15:30;20.70;57.20
38237;DHT22;50101;49.438;11.098;2024-02-21T14:17:57;20.60;57.10
38237;DHT22;50101;49.438;11.098;2024-02-21T14:20:24;20.70;57.10
38237;DHT22;50101;49.438;11.098;2024-02-21T14:22:51;20.70;57.10
38237;DHT22;50101;49.438;11.098;2024-02-21T14:25:18;20.70;57.20
38237;DHT22;50101;49.438;11.098;2024-02-21T14:27:45;20.60;57.20
38237;DHT22;50101;49.438;11.098;2024-02-21T14:30:12;20.70;57.30
38237;DHT22;50101;49.438;11.098;2024-02-21T14:32:43;20.70;57.30
38237;DHT22;50101;49.438;11.098;2024-02-21T14:35:10;20.60;57.00
38237;DHT22;50101;49.438;11.098;2024-02-21T14:37:37;20.50;56.90
38237;DHT22;50101;49.438;11.098;2024-02-21T14:40:04;20.40;56.70
38237;DHT22;50101;49.438;11.098;2024-02-21T14:42:32;20.40;56.80
38237;DHT22;50101;49.438;11.098;2024-02-21T14:45:00;20.30;56.90
38237;DHT22;50101;49.438;11.098;2024-02-21T14:47:31;20.20;56.60
38237;DHT22;50101;49.438;11.098;2024-02-21T14:49:59;20.30;56.60
38237;DHT22;50101;49.438;11.098;2024-02-21T14:52:26;20.30;56.40
38237;DHT22;50101;49.438;11.098;2024-02-21T14:57:22;20.20;56.40
38237;DHT22;50101;49.438;11.098;2024-02-21T14:59:49;20.20;56.30
38237;DHT22;50101;49.438;11.098;2024-02-21T15:02:18;20.20;56.30
38237;DHT22;50101;49.438;11.098;2024-02-21T15:04:45;20.30;56.20
38237;DHT22;50101;49.438;11.098;2024-02-21T15:07:12;20.20;56.20
38237;DHT22;50101;49.438;11.098;2024-02-21T15:09:39;20.20;56.10
38237;DHT22;50101;49.438;11.098;2024-02-21T15:12:06;20.20;56.10
38237;DHT22;50101;49.438;11.098;2024-02-21T15:14:33;20.20;56.10
38237;DHT22;50101;49.438;11.098;2024-02-21T15:17:00;20.10;56.00
38237;DHT22;50101;49.438;11.098;2024-02-21T15:19:27;20.20;56.00
38237;DHT22;50101;49.438;11.098;2024-02-21T15:21:54;20.10;56.00
38237;DHT22;50101;49.438;11.098;2024-02-21T15:24:20;20.10;55.90
38237;DHT22;50101;49.438;11.098;2024-02-21T15:26:47;20.20;56.10
38237;DHT22;50101;49.438;11.098;2024-02-21T15:29:14;20.10;56.00
38237;DHT22;50101;49.438;11.098;2024-02-21T15:31:40;20.10;55.90
38237;DHT22;50101;49.438;11.098;2024-02-21T15:34:13;20.10;56.00
38237;DHT22;50101;49.438;11.098;2024-02-21T15:36:42;20.00;55.90
38237;DHT22;50101;49.438;11.098;2024-02-21T15:39:09;20.10;56.00
38237;DHT22;50101;49.438;11.098;2024-02-21T15:41:37;20.20;56.10
38237;DHT22;50101;49.438;11.098;2024-02-21T15:44:04;20.10;56.10
38237;DHT22;50101;49.438;11.098;2024-02-21T15:46:31;20.10;56.00
38237;DHT22;50101;49.438;11.098;2024-02-21T15:49:00;20.20;56.00
38237;DHT22;50101;49.438;11.098;2024-02-21T15:51:27;20.10;55.70
38237;DHT22;50101;49.438;11.098;2024-02-21T15:53:54;20.10;55.70
38237;DHT22;50101;49.438;11.098;2024-02-21T15:56:20;20.10;55.60
38237;DHT22;50101;49.438;11.098;2024-02-21T15:58:47;20.10;55.40
38237;DHT22;50101;49.438;11.098;2024-02-21T16:01:15;20.20;55.40